Impacts METAR Board
IDs:

KSFO - San Francisco Intl, CA, US

Updated at: 2100 UTC 08 Aug 2020
Potential Impact None Slight Moderate High
Time 08/09Z 08/10Z 08/11Z 08/12Z 08/13Z 08/14Z 08/15Z 08/16Z 08/17Z 08/18Z 08/19Z 08/20Z 08/21Z
Temp58 59 59 58 60 60 61 65 66 67 69 70 73
Dewpt54 54 54 54 54 54 54 57 57 58 59 58 59
Altim29.94 29.94 29.94 29.94 29.95 29.96 29.97 29.98 29.97 29.97 29.97 29.96 29.95
VIS10 10 10 10 10 10 10 10 10 10 10 10 10
CIG-- -- -- -- 9 8 -- -- -- -- -- -- --
CoverFEWCLRCLRCLRBKNBKNSCTSCTSCTFEWFEWFEWFEW
FltCatVFRVFRVFRVFRIFRIFRVFRVFRVFRVFRVFRVFRVFR
WX--------------------------
WDir290290290000190805040303030
WSpd6 7 5 0 0 3 3 3 5 6 8 10 8
WGst-- -- -- -- -- -- -- -- -- -- -- -- --
Raw hourly METARs
KSFO 080856Z 29006KT 10SM FEW004 14/12 A2994 RMK AO2 SLP137 T01440122 50001
KSFO 080956Z 29007KT 10SM CLR 15/12 A2994 RMK AO2 SLP137 T01500122
KSFO 081056Z 29005KT 10SM CLR 15/12 A2994 RMK AO2 SLP138 T01500122
KSFO 081156Z 00000KT 10SM CLR 14/12 A2994 RMK AO2 SLP137 T01440122 10156 20144 50000
KSFO 081256Z 00000KT 10SM BKN009 16/12 A2995 RMK AO2 SLP140 T01560122
KSFO 081356Z VRB03KT 10SM FEW006 BKN008 16/12 A2996 RMK AO2 SLP145 T01560122
KSFO 081456Z 19003KT 10SM FEW006 SCT009 16/12 A2997 RMK AO2 SLP148 T01610122 51011
KSFO 081556Z 08003KT 10SM FEW008 SCT011 18/14 A2998 RMK AO2 SLP150 T01830139
KSFO 081656Z 05005KT 10SM FEW008 SCT014 19/14 A2997 RMK AO2 SLP149 T01890139
KSFO 081756Z 04006KT 10SM FEW009 19/14 A2997 RMK AO2 SLP148 T01940144 10194 20144 58000
KSFO 081856Z 03008KT 10SM FEW009 21/15 A2997 RMK AO2 SLP148 T02060150
KSFO 081956Z 03010KT 10SM FEW009 21/14 A2996 RMK AO2 SLP144 T02110144
KSFO 082056Z 03008KT 10SM FEW009 23/15 A2995 RMK AO2 SLP141 T02280150 58006



Page loaded:  21:48 UTC  |   02:48 PM Pacific  |   03:48 PM Mountain  |   04:48 PM Central  |   05:48 PM Eastern

 

ADVISORIES

FORECASTS

FORECASTS

OBSERVATIONS

USER TOOLS

ABOUT US